createdAt,value
2018-04-09T00:01:27.950Z,99865
2018-04-09T00:03:56.026Z,99874
2018-04-09T00:06:25.095Z,99870
2018-04-09T00:08:53.302Z,99871
2018-04-09T00:11:21.424Z,99869
2018-04-09T00:13:49.645Z,99877
2018-04-09T00:16:17.725Z,99872
2018-04-09T00:18:46.599Z,99881
2018-04-09T00:21:14.719Z,99873
2018-04-09T00:23:42.801Z,99865
2018-04-09T00:26:10.872Z,99867
2018-04-09T00:28:38.962Z,99871
2018-04-09T00:31:07.635Z,99869
2018-04-09T00:33:35.832Z,99864
2018-04-09T00:36:04.968Z,99861
2018-04-09T00:38:33.837Z,99856
2018-04-09T00:41:01.905Z,99864
2018-04-09T00:43:30.012Z,99865
2018-04-09T00:45:58.074Z,99864
2018-04-09T00:48:26.182Z,99861
2018-04-09T00:50:54.243Z,99857
2018-04-09T00:56:30.753Z,99857
2018-04-09T00:58:58.846Z,99855
2018-04-09T01:01:26.931Z,99869
2018-04-09T01:03:55.015Z,99857
2018-04-09T01:06:23.255Z,99856
2018-04-09T01:08:51.334Z,99857
2018-04-09T01:11:19.425Z,99859
2018-04-09T01:13:47.503Z,99859
2018-04-09T01:16:15.584Z,99860
2018-04-09T01:18:44.421Z,99855
2018-04-09T01:21:12.498Z,99853
2018-04-09T01:23:41.524Z,99851
2018-04-09T01:26:09.611Z,99850
2018-04-09T01:28:37.706Z,99857
2018-04-09T01:31:05.783Z,99859
2018-04-09T01:33:33.878Z,99853
2018-04-09T01:36:05.322Z,99860
2018-04-09T01:38:33.395Z,99860
2018-04-09T01:41:01.482Z,99858
2018-04-09T01:43:29.558Z,99865
2018-04-09T01:45:57.647Z,99860
2018-04-09T01:48:26.507Z,99861
2018-04-09T01:50:54.578Z,99861
2018-04-09T01:53:23.520Z,99858
2018-04-09T01:55:52.353Z,99860
2018-04-09T01:58:20.447Z,99856
2018-04-09T02:00:48.660Z,99853
2018-04-09T02:03:16.734Z,99845
2018-04-09T02:05:45.591Z,99850
2018-04-09T02:08:13.674Z,99868
2018-04-09T02:10:41.758Z,99855
2018-04-09T02:13:10.207Z,99862
2018-04-09T02:15:38.302Z,99853
2018-04-09T02:18:08.011Z,99852
2018-04-09T02:20:36.076Z,99857
2018-04-09T02:23:04.173Z,99843
2018-04-09T02:25:32.578Z,99849
2018-04-09T02:28:00.648Z,99842
2018-04-09T02:30:28.738Z,99837
2018-04-09T02:32:56.803Z,99839
2018-04-09T02:35:24.898Z,99834
2018-04-09T02:37:52.966Z,99831
2018-04-09T02:40:21.295Z,99827
2018-04-09T02:42:49.373Z,99826
2018-04-09T02:45:18.238Z,99831
2018-04-09T02:47:46.300Z,99834
2018-04-09T02:50:14.407Z,99838
2018-04-09T02:52:42.466Z,99833
2018-04-09T02:55:10.549Z,99832
2018-04-09T02:57:38.612Z,99831
2018-04-09T03:00:07.474Z,99829
2018-04-09T03:02:35.596Z,99823
2018-04-09T03:05:04.553Z,99811
2018-04-09T03:07:32.648Z,99818
2018-04-09T03:10:02.261Z,99809
2018-04-09T03:12:33.079Z,99811
2018-04-09T03:15:01.909Z,99819
2018-04-09T03:17:30.010Z,99819
2018-04-09T03:19:58.202Z,99831
2018-04-09T03:22:26.286Z,99833
2018-04-09T03:24:55.994Z,99831
2018-04-09T03:27:24.084Z,99829
2018-04-09T03:29:53.419Z,99844
2018-04-09T03:32:23.257Z,99844
2018-04-09T03:34:51.593Z,99842
2018-04-09T03:37:20.552Z,99840
2018-04-09T03:39:49.576Z,99838
2018-04-09T03:42:18.459Z,99836
2018-04-09T03:44:46.540Z,99837
2018-04-09T03:47:14.895Z,99841
2018-04-09T03:49:45.033Z,99845
2018-04-09T03:52:14.854Z,99840
2018-04-09T03:54:44.614Z,99846
2018-04-09T03:57:13.724Z,99844
2018-04-09T03:59:42.590Z,99853
2018-04-09T04:02:11.565Z,99852
2018-04-09T04:04:39.695Z,99850
2018-04-09T04:07:08.036Z,99853
2018-04-09T04:09:36.272Z,99856
2018-04-09T04:12:04.352Z,99851
2018-04-09T04:14:32.446Z,99858
2018-04-09T04:17:18.241Z,99849
2018-04-09T04:20:06.126Z,99841
2018-04-09T04:22:34.571Z,99839
2018-04-09T04:25:02.660Z,99836
2018-04-09T04:27:30.996Z,99833
2018-04-09T04:29:59.075Z,99829
2018-04-09T04:32:27.155Z,99827
2018-04-09T04:34:55.226Z,99827
2018-04-09T04:37:23.349Z,99826
2018-04-09T04:39:51.501Z,99820
2018-04-09T04:42:19.632Z,99827
2018-04-09T04:44:47.739Z,99825
2018-04-09T04:47:15.839Z,99833
2018-04-09T04:49:44.145Z,99829
2018-04-09T04:52:12.278Z,99837
2018-04-09T04:54:42.227Z,99838
2018-04-09T04:57:10.391Z,99834
2018-04-09T04:59:40.426Z,99837
2018-04-09T05:02:09.925Z,99822
2018-04-09T05:04:43.162Z,99830
2018-04-09T05:07:11.253Z,99830
2018-04-09T05:09:39.339Z,99841
2018-04-09T05:12:10.267Z,99842
2018-04-09T05:14:41.308Z,99841
2018-04-09T05:17:11.434Z,99843
2018-04-09T05:19:40.486Z,99843
2018-04-09T05:22:10.414Z,99833
2018-04-09T05:24:38.639Z,99840
2018-04-09T05:27:09.155Z,99831
2018-04-09T05:29:39.709Z,99829
2018-04-09T05:32:11.060Z,99827
2018-04-09T05:34:40.124Z,99826
2018-04-09T05:37:09.801Z,99824
2018-04-09T05:39:37.963Z,99830
2018-04-09T05:42:06.038Z,99830
2018-04-09T05:44:34.166Z,99836
2018-04-09T05:47:02.334Z,99833
2018-04-09T05:49:30.435Z,99839
2018-04-09T05:51:58.543Z,99844
2018-04-09T05:54:27.622Z,99842
2018-04-09T05:56:55.727Z,99846
2018-04-09T05:59:23.854Z,99843
2018-04-09T06:01:51.949Z,99851
2018-04-09T06:04:20.884Z,99855
2018-04-09T06:06:49.061Z,99861
2018-04-09T06:09:17.178Z,99857
2018-04-09T06:11:45.322Z,99857
2018-04-09T06:14:13.431Z,99852
2018-04-09T06:16:42.069Z,99852
2018-04-09T06:19:10.183Z,99851
2018-04-09T06:21:38.507Z,99847
2018-04-09T06:24:06.597Z,99849
2018-04-09T06:26:34.766Z,99850
2018-04-09T06:29:02.843Z,99849
2018-04-09T06:31:30.970Z,99853
2018-04-09T06:33:59.095Z,99853
2018-04-09T06:36:28.063Z,99859
2018-04-09T06:38:56.570Z,99865
2018-04-09T06:41:24.667Z,99860
2018-04-09T06:43:53.687Z,99859
2018-04-09T06:46:22.174Z,99853
2018-04-09T06:48:50.290Z,99853
2018-04-09T06:51:18.398Z,99846
2018-04-09T06:53:46.489Z,99852
2018-04-09T06:56:14.775Z,99843
2018-04-09T06:58:42.934Z,99856
2018-04-09T07:01:11.790Z,99858
2018-04-09T07:03:39.887Z,99864
2018-04-09T07:06:10.043Z,99864
2018-04-09T07:08:38.767Z,99863
2018-04-09T07:11:07.047Z,99864
2018-04-09T07:13:35.708Z,99870
2018-04-09T07:16:03.790Z,99868
2018-04-09T07:18:32.009Z,99877
2018-04-09T07:21:00.117Z,99882
2018-04-09T07:23:28.476Z,99876
2018-04-09T07:25:57.372Z,99875
2018-04-09T07:28:25.884Z,99874
2018-04-09T07:30:53.950Z,99882
2018-04-09T07:33:22.030Z,99873
2018-04-09T07:35:50.487Z,99881
2018-04-09T07:38:19.464Z,99873
2018-04-09T07:40:47.554Z,99865
2018-04-09T07:43:16.406Z,99856
2018-04-09T07:45:44.518Z,99860
2018-04-09T07:48:12.635Z,99857
2018-04-09T07:50:41.711Z,99862
2018-04-09T07:53:09.852Z,99861
2018-04-09T07:55:38.719Z,99867
2018-04-09T07:58:06.790Z,99864
2018-04-09T08:00:35.618Z,99856
2018-04-09T08:03:03.800Z,99852
2018-04-09T08:05:31.958Z,99865
2018-04-09T08:08:01.559Z,99863
2018-04-09T08:10:31.245Z,99859
2018-04-09T08:13:00.702Z,99864
2018-04-09T08:15:28.821Z,99866
2018-04-09T08:17:57.926Z,99870
2018-04-09T08:20:26.018Z,99868
2018-04-09T08:22:54.866Z,99866
2018-04-09T08:25:22.963Z,99866
2018-04-09T08:27:52.567Z,99850
2018-04-09T08:30:20.879Z,99855
2018-04-09T08:32:48.959Z,99851
2018-04-09T08:35:17.830Z,99845
2018-04-09T08:37:46.676Z,99846
2018-04-09T08:40:14.770Z,99841
2018-04-09T08:42:43.758Z,99849
2018-04-09T08:45:11.852Z,99851
2018-04-09T08:47:39.958Z,99855
2018-04-09T08:50:08.070Z,99844
2018-04-09T08:52:36.150Z,99849
2018-04-09T08:55:04.258Z,99847
2018-04-09T08:57:32.351Z,99837
2018-04-09T09:00:02.424Z,99832
2018-04-09T09:02:30.518Z,99829
2018-04-09T09:04:58.628Z,99842
2018-04-09T09:07:26.718Z,99843
2018-04-09T09:09:54.808Z,99842
2018-04-09T09:12:23.825Z,99836
2018-04-09T09:14:51.917Z,99828
2018-04-09T09:17:20.017Z,99831
2018-04-09T09:19:48.426Z,99828
2018-04-09T09:22:16.525Z,99826
2018-04-09T09:24:44.650Z,99826
2018-04-09T09:27:12.742Z,99822
2018-04-09T09:29:40.848Z,99810
2018-04-09T09:32:09.037Z,99811
2018-04-09T09:34:37.124Z,99811
2018-04-09T09:37:05.234Z,99800
2018-04-09T09:39:33.340Z,99794
2018-04-09T09:42:01.459Z,99799
2018-04-09T09:44:29.600Z,99796
2018-04-09T09:46:57.941Z,99792
2018-04-09T09:49:27.537Z,99794
2018-04-09T09:51:56.010Z,99797
2018-04-09T09:54:24.098Z,99792
2018-04-09T09:56:53.099Z,99790
2018-04-09T09:59:21.210Z,99800
2018-04-09T10:01:49.296Z,99788
2018-04-09T10:04:18.946Z,99788
2018-04-09T10:06:47.791Z,99786
2018-04-09T10:09:15.879Z,99788
2018-04-09T10:11:43.954Z,99792
2018-04-09T10:14:12.732Z,99783
2018-04-09T10:16:41.277Z,99785
2018-04-09T10:19:09.422Z,99775
2018-04-09T10:21:38.909Z,99766
2018-04-09T10:24:07.154Z,99781
2018-04-09T10:26:36.276Z,99770
2018-04-09T10:29:04.401Z,99761
2018-04-09T10:31:33.544Z,99767
2018-04-09T10:34:03.674Z,99776
2018-04-09T10:36:32.533Z,99762
2018-04-09T10:39:00.802Z,99762
2018-04-09T10:41:28.924Z,99761
2018-04-09T10:43:57.093Z,99764
2018-04-09T10:46:26.050Z,99755
2018-04-09T10:48:54.212Z,99750
2018-04-09T10:51:22.319Z,99751
2018-04-09T10:53:51.039Z,99747
2018-04-09T10:56:21.161Z,99751
2018-04-09T10:58:49.320Z,99742
2018-04-09T11:01:18.187Z,99757
2018-04-09T11:03:47.523Z,99751
2018-04-09T11:06:16.825Z,99750
2018-04-09T11:08:45.077Z,99741
2018-04-09T11:11:13.149Z,99734
2018-04-09T11:13:41.292Z,99731
2018-04-09T11:16:12.866Z,99728
2018-04-09T11:18:41.071Z,99729
2018-04-09T11:21:10.196Z,99716
2018-04-09T11:23:39.690Z,99711
2018-04-09T11:26:07.859Z,99710
2018-04-09T11:28:35.971Z,99711
2018-04-09T11:31:04.082Z,99707
2018-04-09T11:33:32.288Z,99708
2018-04-09T11:36:00.361Z,99715
2018-04-09T11:38:31.709Z,99708
2018-04-09T11:41:00.752Z,99704
2018-04-09T11:43:28.924Z,99699
2018-04-09T11:45:57.026Z,99688
2018-04-09T11:48:25.297Z,99686
2018-04-09T11:50:53.385Z,99689
2018-04-09T11:53:25.477Z,99681
2018-04-09T11:55:53.565Z,99677
2018-04-09T11:58:24.901Z,99679
2018-04-09T12:00:53.002Z,99675
2018-04-09T12:03:21.827Z,99679
2018-04-09T12:05:50.676Z,99688
2018-04-09T12:08:18.762Z,99685
2018-04-09T12:10:46.883Z,99674
2018-04-09T12:13:15.434Z,99674
2018-04-09T12:15:43.908Z,99673
2018-04-09T12:18:12.019Z,99675
2018-04-09T12:20:40.130Z,99674
2018-04-09T12:23:08.236Z,99669
2018-04-09T12:25:36.904Z,99665
2018-04-09T12:28:05.165Z,99656
2018-04-09T12:30:35.327Z,99664
2018-04-09T12:33:03.440Z,99657
2018-04-09T12:35:31.545Z,99661
2018-04-09T12:37:59.632Z,99658
2018-04-09T12:40:28.004Z,99652
2018-04-09T12:42:56.996Z,99655
2018-04-09T12:45:25.085Z,99655
2018-04-09T12:47:53.208Z,99649
2018-04-09T12:50:22.521Z,99653
2018-04-09T12:52:50.661Z,99648
2018-04-09T12:55:18.715Z,99642
2018-04-09T12:57:47.576Z,99640
2018-04-09T13:00:15.690Z,99640
2018-04-09T13:02:43.756Z,99639
2018-04-09T13:05:11.851Z,99641
2018-04-09T13:07:39.950Z,99639
2018-04-09T13:10:08.080Z,99641
2018-04-09T13:12:36.124Z,99641
2018-04-09T13:15:04.243Z,99637
2018-04-09T13:17:32.321Z,99638
2018-04-09T13:20:00.431Z,99632
2018-04-09T13:22:28.745Z,99631
2018-04-09T13:24:56.867Z,99625
2018-04-09T13:27:24.952Z,99622
2018-04-09T13:29:53.057Z,99610
2018-04-09T13:32:21.228Z,99612
2018-04-09T13:34:49.639Z,99616
2018-04-09T13:37:17.746Z,99614
2018-04-09T13:39:46.561Z,99606
2018-04-09T13:42:15.617Z,99601
2018-04-09T13:44:44.917Z,99598
2018-04-09T13:47:13.073Z,99592
2018-04-09T13:49:41.231Z,99586
2018-04-09T13:52:09.339Z,99584
2018-04-09T13:54:38.017Z,99588
2018-04-09T13:57:07.420Z,99577
2018-04-09T13:59:35.518Z,99583
2018-04-09T14:02:05.278Z,99584
2018-04-09T14:04:34.733Z,99568
2018-04-09T14:07:02.881Z,99563
2018-04-09T14:09:30.975Z,99555
2018-04-09T14:11:59.072Z,99544
2018-04-09T14:14:28.537Z,99541
2018-04-09T14:16:56.621Z,99534
2018-04-09T14:19:24.749Z,99534
2018-04-09T14:21:52.849Z,99529
2018-04-09T14:24:20.942Z,99534
2018-04-09T14:26:49.034Z,99524
2018-04-09T14:29:17.136Z,99523
2018-04-09T14:31:45.995Z,99519
2018-04-09T14:34:14.401Z,99526
2018-04-09T14:36:42.474Z,99518
2018-04-09T14:39:10.588Z,99524
2018-04-09T14:41:38.684Z,99516
2018-04-09T14:44:06.758Z,99514
2018-04-09T14:46:35.842Z,99518
2018-04-09T14:49:03.923Z,99514
2018-04-09T14:51:32.004Z,99512
2018-04-09T14:54:00.860Z,99511
2018-04-09T14:56:28.960Z,99503
2018-04-09T14:58:57.276Z,99507
2018-04-09T15:01:25.368Z,99495
2018-04-09T15:03:53.695Z,99496
2018-04-09T15:06:22.560Z,99506
2018-04-09T15:08:50.998Z,99498
2018-04-09T15:11:19.241Z,99493
2018-04-09T15:13:47.363Z,99486
2018-04-09T15:16:15.496Z,99487
2018-04-09T15:18:43.769Z,99480
2018-04-09T15:21:11.880Z,99485
2018-04-09T15:23:39.946Z,99473
2018-04-09T15:26:08.079Z,99475
2018-04-09T15:28:36.139Z,99469
2018-04-09T15:31:04.239Z,99467
2018-04-09T15:33:33.174Z,99470
2018-04-09T15:36:01.247Z,99467
2018-04-09T15:38:29.335Z,99468
2018-04-09T15:40:57.424Z,99468
2018-04-09T15:43:26.081Z,99473
2018-04-09T15:45:55.220Z,99479
2018-04-09T15:48:24.348Z,99475
2018-04-09T15:50:53.192Z,99479
2018-04-09T15:53:21.314Z,99473
2018-04-09T15:55:53.481Z,99465
2018-04-09T15:58:23.245Z,99468
2018-04-09T16:00:51.377Z,99468
2018-04-09T16:03:19.457Z,99470
2018-04-09T16:05:47.616Z,99457
2018-04-09T16:08:15.710Z,99459
2018-04-09T16:10:43.804Z,99460
2018-04-09T16:13:12.661Z,99456
2018-04-09T16:15:41.349Z,99456
2018-04-09T16:18:09.454Z,99448
2018-04-09T16:20:37.931Z,99439
2018-04-09T16:23:06.038Z,99440
2018-04-09T16:25:34.114Z,99443
2018-04-09T16:28:05.885Z,99440
2018-04-09T16:30:33.965Z,99438
2018-04-09T16:33:02.128Z,99432
2018-04-09T16:35:30.224Z,99439
2018-04-09T16:37:58.374Z,99443
2018-04-09T16:40:26.469Z,99435
2018-04-09T16:42:54.581Z,99427
2018-04-09T16:45:23.532Z,99436
2018-04-09T16:47:51.726Z,99428
2018-04-09T16:50:19.958Z,99426
2018-04-09T16:52:48.048Z,99430
2018-04-09T16:55:16.142Z,99425
2018-04-09T16:57:44.226Z,99415
2018-04-09T17:00:12.695Z,99413
2018-04-09T17:02:40.794Z,99414
2018-04-09T17:05:09.999Z,99413
2018-04-09T17:07:38.837Z,99412
2018-04-09T17:10:06.915Z,99408
2018-04-09T17:12:35.039Z,99405
2018-04-09T17:15:03.113Z,99413
2018-04-09T17:17:32.021Z,99409
2018-04-09T17:20:00.124Z,99398
2018-04-09T17:22:28.989Z,99401
2018-04-09T17:24:57.062Z,99392
2018-04-09T17:27:25.175Z,99394
2018-04-09T17:29:53.249Z,99401
2018-04-09T17:32:21.387Z,99404
2018-04-09T17:34:49.530Z,99402
2018-04-09T17:37:17.599Z,99404
2018-04-09T17:39:45.710Z,99402
2018-04-09T17:42:13.809Z,99400
2018-04-09T17:44:42.699Z,99397
2018-04-09T17:47:10.820Z,99397
2018-04-09T17:49:39.213Z,99400
2018-04-09T17:52:07.329Z,99398
2018-04-09T17:54:35.451Z,99392
2018-04-09T17:57:03.557Z,99387
2018-04-09T17:59:31.667Z,99394
2018-04-09T18:01:59.776Z,99385
2018-04-09T18:04:27.872Z,99389
2018-04-09T18:06:55.965Z,99385
2018-04-09T18:09:24.078Z,99395
2018-04-09T18:11:52.185Z,99385
2018-04-09T18:14:20.295Z,99387
2018-04-09T18:16:48.381Z,99385
2018-04-09T18:19:17.233Z,99390
2018-04-09T18:21:45.373Z,99389
2018-04-09T18:24:13.485Z,99392
2018-04-09T18:26:41.616Z,99388
2018-04-09T18:29:10.159Z,99391
2018-04-09T18:31:38.307Z,99396
2018-04-09T18:34:06.410Z,99393
2018-04-09T18:36:35.146Z,99392
2018-04-09T18:39:03.327Z,99393
2018-04-09T18:41:31.426Z,99392
2018-04-09T18:43:59.542Z,99389
2018-04-09T18:46:28.023Z,99394
2018-04-09T18:48:56.121Z,99396
2018-04-09T18:51:24.768Z,99392
2018-04-09T18:53:52.915Z,99395
2018-04-09T18:56:21.004Z,99392
2018-04-09T18:58:49.524Z,99400
2018-04-09T19:01:17.620Z,99397
2018-04-09T19:03:46.100Z,99403
2018-04-09T19:06:15.253Z,99407
2018-04-09T19:08:44.384Z,99411
2018-04-09T19:11:13.368Z,99411
2018-04-09T19:13:41.461Z,99406
2018-04-09T19:16:09.614Z,99404
2018-04-09T19:18:37.740Z,99408
2018-04-09T19:21:06.612Z,99399
2018-04-09T19:23:34.710Z,99410
2018-04-09T19:26:02.873Z,99401
2018-04-09T19:28:30.980Z,99413
2018-04-09T19:30:59.863Z,99401
2018-04-09T19:33:27.974Z,99397
2018-04-09T19:36:02.965Z,99411
2018-04-09T19:38:37.246Z,99407
2018-04-09T19:41:06.020Z,99411
2018-04-09T19:43:35.051Z,99411
2018-04-09T19:46:03.277Z,99425
2018-04-09T19:48:31.796Z,99418
2018-04-09T19:51:00.408Z,99414
2018-04-09T19:53:29.540Z,99416
2018-04-09T19:55:59.555Z,99414
2018-04-09T19:58:28.039Z,99413
2018-04-09T20:00:56.322Z,99414
2018-04-09T20:03:24.692Z,99426
2018-04-09T20:05:54.935Z,99418
2018-04-09T20:08:23.190Z,99419
2018-04-09T20:10:52.194Z,99413
2018-04-09T20:13:20.661Z,99415
2018-04-09T20:15:48.908Z,99408
2018-04-09T20:18:18.106Z,99417
2018-04-09T20:20:47.284Z,99405
2018-04-09T20:23:16.570Z,99414
2018-04-09T20:25:45.012Z,99416
2018-04-09T20:28:14.206Z,99413
2018-04-09T20:30:42.532Z,99410
2018-04-09T20:33:11.528Z,99414
2018-04-09T20:35:40.592Z,99413
2018-04-09T20:38:09.571Z,99407
2018-04-09T20:40:37.874Z,99412
2018-04-09T20:43:06.094Z,99414
2018-04-09T20:45:34.726Z,99411
2018-04-09T20:48:03.850Z,99405
2018-04-09T20:50:32.931Z,99413
2018-04-09T20:53:01.023Z,99412
2018-04-09T20:55:29.252Z,99408
2018-04-09T20:57:57.825Z,99408
2018-04-09T21:00:25.908Z,99416
2018-04-09T21:02:53.984Z,99406
2018-04-09T21:05:22.100Z,99409
2018-04-09T21:07:50.974Z,99413
2018-04-09T21:10:19.068Z,99415
2018-04-09T21:12:47.925Z,99407
2018-04-09T21:15:16.845Z,99412
2018-04-09T21:17:44.963Z,99427
2018-04-09T21:20:13.136Z,99431
2018-04-09T21:22:42.201Z,99430
2018-04-09T21:25:10.289Z,99432
2018-04-09T21:27:39.487Z,99430
2018-04-09T21:30:07.571Z,99437
2018-04-09T21:32:35.686Z,99430
2018-04-09T21:35:03.776Z,99426
2018-04-09T21:37:32.617Z,99428
2018-04-09T21:40:00.717Z,99429
2018-04-09T21:42:28.791Z,99424
2018-04-09T21:44:56.922Z,99421
2018-04-09T21:47:25.005Z,99432
2018-04-09T21:49:53.130Z,99431
2018-04-09T21:52:22.116Z,99423
2018-04-09T21:54:50.387Z,99428
2018-04-09T21:57:18.722Z,99425
2018-04-09T21:59:46.857Z,99433
2018-04-09T22:02:14.948Z,99435
2018-04-09T22:04:43.047Z,99427
2018-04-09T22:07:14.845Z,99433
2018-04-09T22:09:43.975Z,99431
2018-04-09T22:12:12.116Z,99436
2018-04-09T22:14:40.535Z,99440
2018-04-09T22:17:08.648Z,99447
2018-04-09T22:19:36.704Z,99440
2018-04-09T22:22:04.799Z,99437
2018-04-09T22:24:32.896Z,99454
2018-04-09T22:27:00.989Z,99443
2018-04-09T22:29:29.079Z,99441
2018-04-09T22:31:57.177Z,99446
2018-04-09T22:34:25.265Z,99446
2018-04-09T22:36:53.355Z,99443
2018-04-09T22:39:22.198Z,99452
2018-04-09T22:41:50.311Z,99447
2018-04-09T22:44:19.478Z,99448
2018-04-09T22:46:47.551Z,99452
2018-04-09T22:49:15.645Z,99448
2018-04-09T22:51:43.712Z,99457
2018-04-09T22:54:11.804Z,99449
2018-04-09T22:56:40.666Z,99459
2018-04-09T22:59:08.755Z,99461
2018-04-09T23:01:36.875Z,99456
2018-04-09T23:04:05.924Z,99451
2018-04-09T23:06:34.443Z,99426
2018-04-09T23:09:02.553Z,99444
2018-04-09T23:11:30.739Z,99452
2018-04-09T23:13:58.826Z,99453
2018-04-09T23:16:27.126Z,99451
2018-04-09T23:18:56.631Z,99453
2018-04-09T23:21:26.081Z,99458
2018-04-09T23:23:57.818Z,99469
2018-04-09T23:26:25.898Z,99466
2018-04-09T23:28:54.130Z,99461
2018-04-09T23:31:22.269Z,99468
2018-04-09T23:33:50.346Z,99467
2018-04-09T23:36:18.438Z,99465
2018-04-09T23:38:47.668Z,99458
2018-04-09T23:41:15.749Z,99457
2018-04-09T23:43:43.843Z,99461
2018-04-09T23:46:11.941Z,99458
2018-04-09T23:48:40.008Z,99467
2018-04-09T23:51:08.476Z,99467
2018-04-09T23:53:36.592Z,99468
2018-04-09T23:56:04.713Z,99471
2018-04-09T23:58:36.068Z,99466
